• Join FlightAware (Why Join?)
  • Login
  • US Flag 
10:52AM EDT


 

Airport Tracker/Info


-or-


 

Live Flight TrackerFlight Track Log ✈ COM3138 ✈ 20-Apr-2012 ✈ KCVG - KBOS

Flight Track Log - Related Links

Times and Time Zones

All times are in EDT time to prevent confusion due to time zone crossing. See the COM3138 flight status page for this flight to view local times or setup timezone preferences in your user account.

Time Position Orientation Groundspeed Altitude Reporting Facility
EDT Latitude Longitude Course Direction KTS MPH feet Rate Location/Type
08:29PM 39.0500 -84.6833 303° West 146 168 1,400  Level Cincinnati TRACON
08:30PM 39.0667 -84.7167 57° Northeast 173 199 2,800 1,920 Climbing Cincinnati TRACON
08:31PM 39.1000 -84.6500 78° East 245 282 5,100 2,220 Climbing Cincinnati TRACON
08:32PM 39.1167 -84.5500 83° East 290 334 7,500 2,280 Climbing Cincinnati TRACON
08:33PM 39.1239 -84.4778 78° East 303 349 9,200 2,040 Climbing Indianapolis Center
08:34PM 39.1414 -84.3708 84° East 372 428 11,200 1,980 Climbing Indianapolis Center
08:35PM 39.1525 -84.2425 99° East 383 441 13,200 1,860 Climbing Indianapolis Center
08:36PM 39.1344 -84.1031 101° East 383 441 15,000 1,740 Climbing Indianapolis Center
08:37PM 39.1122 -83.9611 70° East 398 458 16,700 2,040 Climbing Indianapolis Center
08:38PM 39.1522 -83.8167 66° East 403 464 19,100 2,100 Climbing Indianapolis Center
08:39PM 39.2025 -83.6722 67° East 434 499 21,000 1,800 Climbing Indianapolis Center
08:40PM 39.2503 -83.5275 67° East 440 506 22,800 1,680 Climbing Indianapolis Center
08:41PM 39.3003 -83.3744 67° East 446 513 24,400 1,500 Climbing Indianapolis Center
08:42PM 39.3522 -83.2186 67° East 460 529 25,900 1,500 Climbing Indianapolis Center
08:43PM 39.4036 -83.0600 67° East 460 529 27,500 1,680 Climbing Indianapolis Center
08:44PM 39.4592 -82.8900 67° East 460 529 29,300 1,740 Climbing Indianapolis Center
08:45PM 39.5103 -82.7361 68° East 460 529 31,000 1,560 Climbing Indianapolis Center
08:46PM 39.5592 -82.5822 67° East 460 529 32,500 1,380 Climbing Indianapolis Center
08:47PM 39.6078 -82.4306 67° East 453 521 33,800 1,140 Climbing Indianapolis Center
08:48PM 39.6564 -82.2814 68° East 453 521 34,800 300 Climbing Indianapolis Center
08:51PM 39.7761 -81.8906 68° East 471 542 35,000  Climbing Cleveland Center
08:52PM 39.8258 -81.7292 67° East 461 531 35,000  Level Cleveland Center
08:53PM 39.8753 -81.5758 68° East 466 536 35,000  Level Cleveland Center
08:54PM 39.9244 -81.4169 68° East 466 536 35,000  Level Cleveland Center
08:55PM 39.9756 -81.2550 67° East 471 542 35,000  Level Cleveland Center
08:56PM 40.0264 -81.0956 68° East 471 542 35,000  Level Cleveland Center
08:57PM 40.0750 -80.9386 69° East 471 542 35,000  Level Cleveland Center
08:58PM 40.1211 -80.7786 69° East 471 542 35,000  Level Cleveland Center
08:59PM 40.1692 -80.6183 68° East 471 542 35,000  Level Cleveland Center
09:00PM 40.2192 -80.4581 70° East 471 542 35,000  Level Cleveland Center
09:01PM 40.2647 -80.2975 67° East 466 536 35,000  Level Cleveland Center
09:02PM 40.3103 -80.1531 71° East 476 548 35,000  Level Cleveland Center
09:03PM 40.3533 -79.9892 68° East 465 535 35,000  Level Cleveland Center
09:04PM 40.4003 -79.8333 68° East 471 542 35,000  Level Cleveland Center
09:05PM 40.4472 -79.6772 69° East 465 535 35,000  Level Cleveland Center
09:06PM 40.4936 -79.5156 69° East 465 535 35,000  Level Cleveland Center
09:07PM 40.5381 -79.3592 70° East 465 535 35,000  Level Cleveland Center
09:08PM 40.5819 -79.1969 68° East 465 535 35,000  Level Cleveland Center
09:09PM 40.6300 -79.0375 71° East 470 541 35,000  Level Cleveland Center
09:10PM 40.6714 -78.8750 69° East 470 541 35,000  Level Cleveland Center
09:11PM 40.7228 -78.6956 70° East 470 541 35,000  Level Cleveland Center
09:12PM 40.7944 -78.4361 70° East 501 577 35,000  Level New York Center
09:13PM 40.8381 -78.2761 70° East 482 555 35,000  Level New York Center
09:14PM 40.8814 -78.1161 68° East 467 537 35,000  Level New York Center
09:15PM 40.9311 -77.9539 59° Northeast 467 537 35,000  Level New York Center
09:16PM 40.9983 -77.8042 60° Northeast 467 537 35,000  Level New York Center
09:17PM 41.0633 -77.6567 58° Northeast 467 537 35,000  Level New York Center
09:18PM 41.1325 -77.5067 60° Northeast 467 537 35,000  Level New York Center
09:19PM 41.1850 -77.3878 59° Northeast 467 537 35,000  Level New York Center
09:20PM 41.2564 -77.2264 60° Northeast 462 532 35,000  Level New York Center
09:21PM 41.3228 -77.0725 60° Northeast 467 537 35,000  Level New York Center
09:22PM 41.3869 -76.9236 59° Northeast 462 532 35,000  Level New York Center
09:23PM 41.4531 -76.7747 60° Northeast 462 532 35,000  Level New York Center
09:26PM 41.6161 -76.3975 61° Northeast 468 539 35,000  Level Boston Center
09:27PM 41.6797 -76.2458 61° Northeast 468 539 35,000  Level Boston Center
09:28PM 41.7431 -76.0936 61° Northeast 468 539 35,000  Level Boston Center
09:29PM 41.8064 -75.9386 61° Northeast 468 539 35,000  Level Boston Center
09:30PM 41.8694 -75.7858 60° Northeast 468 539 35,000  Level Boston Center
09:31PM 41.9344 -75.6331 61° Northeast 468 539 35,000  Level Boston Center
09:32PM 41.9969 -75.4797 61° Northeast 468 539 35,000  Level Boston Center
09:33PM 42.0614 -75.3233 58° Northeast 468 539 35,000  Level Boston Center
09:34PM 42.1297 -75.1753 71° East 468 539 35,000  Level Boston Center
09:35PM 42.1689 -75.0172 80° East 458 527 35,000  Level Boston Center
09:36PM 42.1914 -74.8444 79° East 458 527 35,000  Level Boston Center
09:37PM 42.2158 -74.6686 80° East 463 533 35,000  Level Boston Center
09:38PM 42.2381 -74.4956 78° East 469 540 35,000  Level Boston Center
09:39PM 42.2661 -74.3114 80° East 462 532 35,000  Level Boston Center
09:40PM 42.2897 -74.1381 80° East 462 532 35,000  Level Boston Center
09:41PM 42.3108 -73.9675 79° East 462 532 35,000  Level Boston Center
09:42PM 42.3294 -73.8331 81° East 467 537 35,000 -900 Level Boston Center
09:43PM 42.3525 -73.6397 79° East 467 537 33,300 -1,860 Descending Boston Center
09:44PM 42.3769 -73.4658 80° East 462 532 31,300 -2,160 Descending Boston Center
09:45PM 42.4014 -73.2750 80° East 472 543 29,000 -2,160 Descending Boston Center
09:46PM 42.4236 -73.1011 81° East 472 543 27,000 -2,040 Descending Boston Center
09:47PM 42.4431 -72.9325 80° East 464 534 25,000 -2,040 Descending Boston Center
09:48PM 42.4644 -72.7722 81° East 449 517 23,000 -2,040 Descending Boston Center
09:49PM 42.4836 -72.6061 82° East 442 509 21,000 -1,800 Descending Boston Center
09:50PM 42.4964 -72.4767 80° East 437 503 19,400 -1,800 Descending Boston Center
09:51PM 42.5169 -72.3189 86° East 416 479 17,500 -1,980 Descending Boston Center
09:52PM 42.5250 -72.1583 94° East 393 452 15,500 -1,860 Descending Boston Center
09:53PM 42.5183 -72.0147 91° East 383 441 13,800 -1,380 Descending Boston Center
09:54PM 42.5158 -71.8739 93° East 383 441 12,800 -1,080 Descending Boston Center
09:55PM 42.5108 -71.7303 94° East 383 441 11,700 -960 Descending Boston Center
09:56PM 42.5036 -71.5953 98° East 367 422 10,900 -960 Descending Boston Center
09:57PM 42.4922 -71.4828 83° East 322 371 9,800 -1,260 Descending Boston Center
09:58PM 42.5017 -71.3728 64° Northeast 297 342 8,400 -1,500 Descending Boston Center
09:58PM 42.5333 -71.2833 90° East 290 334 7,000 -1,440 Descending Boston TRACON
09:59PM 42.5333 -71.1833 90° East 276 318 5,800 -1,260 Descending Boston TRACON
10:00PM 42.5333 -71.0833 105° East 249 287 4,500 -1,200 Descending Boston TRACON
10:01PM 42.5167 -71.0000 144° Southeast 192 221 3,500 -1,200 Descending Boston TRACON
10:02PM 42.4833 -70.9667 180° South 163 188 2,100 -1,080 Descending Boston TRACON
10:03PM 42.4500 -70.9667 200° South 119 137 1,400 -660 Descending Boston TRACON
10:04PM 42.4167 -70.9833 200° South 122 140 900 -600 Descending Boston TRACON
10:06PM 42.3833 -71.0000 208° Southwest 125 144 200 3,120 Descending Boston TRACON
10:08PM 42.3250 -71.0417 208° Southwest 125 144 11,000 5,340 Climbing Boston Center